createdAt,value
2023-01-19T00:02:07.146Z,0.90
2023-01-19T00:04:38.663Z,0.70
2023-01-19T00:07:10.050Z,0.70
2023-01-19T00:14:42.566Z,0.80
2023-01-19T00:17:13.699Z,0.65
2023-01-19T00:19:45.039Z,0.60
2023-01-19T00:27:17.884Z,1.48
2023-01-19T00:29:49.175Z,0.50
2023-01-19T00:32:21.743Z,0.70
2023-01-19T00:34:53.817Z,0.75
2023-01-19T00:37:24.873Z,0.82
2023-01-19T00:39:55.729Z,0.68
2023-01-19T00:45:23.652Z,0.60
2023-01-19T00:47:58.569Z,0.70
2023-01-19T00:50:31.339Z,0.88
2023-01-19T00:53:03.212Z,0.70
2023-01-19T00:55:37.444Z,0.68
2023-01-19T00:58:08.731Z,0.70
2023-01-19T01:00:40.314Z,0.77
2023-01-19T01:03:12.701Z,0.70
2023-01-19T01:05:44.767Z,0.80
2023-01-19T01:10:46.417Z,0.80
2023-01-19T01:15:53.811Z,0.80
2023-01-19T01:18:26.258Z,1.00
2023-01-19T01:21:07.665Z,1.30
2023-01-19T01:23:39.012Z,1.10
2023-01-19T01:26:10.367Z,1.00
2023-01-19T01:28:41.565Z,1.42
2023-01-19T01:33:43.065Z,1.07
2023-01-19T01:36:14.617Z,0.93
2023-01-19T01:38:45.680Z,1.10
2023-01-19T01:41:17.110Z,0.98
2023-01-19T01:43:59.655Z,1.00
2023-01-19T01:46:32.611Z,0.90
2023-01-19T01:49:10.093Z,0.90
2023-01-19T01:51:53.363Z,1.08
2023-01-19T01:54:29.111Z,0.80
2023-01-19T01:57:05.836Z,0.98
2023-01-19T01:59:42.590Z,1.00
2023-01-19T02:02:55.874Z,1.00
2023-01-19T02:05:31.289Z,0.80
2023-01-19T02:08:38.384Z,0.80
2023-01-19T02:11:27.523Z,0.70
2023-01-19T02:13:58.931Z,0.90
2023-01-19T02:16:31.500Z,0.90
2023-01-19T02:19:02.633Z,1.00
2023-01-19T02:24:04.544Z,1.10
2023-01-19T02:26:46.760Z,0.70
2023-01-19T02:29:21.156Z,0.90
2023-01-19T02:31:52.357Z,0.90
2023-01-19T02:34:24.326Z,1.00
2023-01-19T02:37:25.625Z,1.05
2023-01-19T02:39:59.831Z,0.90
2023-01-19T02:42:34.718Z,0.93
2023-01-19T02:45:08.436Z,0.90
2023-01-19T02:47:53.333Z,0.90
2023-01-19T02:50:51.271Z,0.70
2023-01-19T02:53:34.612Z,1.00
2023-01-19T02:56:38.727Z,0.90
2023-01-19T02:59:21.607Z,1.00
2023-01-19T03:01:52.560Z,1.00
2023-01-19T03:04:38.467Z,0.93
2023-01-19T03:07:31.764Z,1.40
2023-01-19T03:10:13.597Z,1.08
2023-01-19T03:12:54.696Z,1.05
2023-01-19T03:15:51.134Z,0.90
2023-01-19T03:18:25.859Z,1.13
2023-01-19T03:20:59.951Z,1.00
2023-01-19T03:23:33.578Z,1.10
2023-01-19T03:26:06.677Z,1.15
2023-01-19T03:28:38.419Z,0.77
2023-01-19T03:31:22.562Z,1.15
2023-01-19T03:34:02.431Z,1.10
2023-01-19T03:36:39.387Z,1.20
2023-01-19T03:39:11.869Z,1.02
2023-01-19T03:41:43.990Z,1.00
2023-01-19T03:44:15.116Z,0.90
2023-01-19T03:46:47.775Z,0.93
2023-01-19T03:49:19.016Z,0.95
2023-01-19T03:51:50.307Z,1.00
2023-01-19T03:54:21.274Z,1.10
2023-01-19T03:56:53.914Z,0.90
2023-01-19T03:59:25.016Z,1.00
2023-01-19T04:01:56.355Z,1.00
2023-01-19T04:04:27.252Z,0.93
2023-01-19T04:06:59.166Z,0.88
2023-01-19T04:09:30.163Z,0.90
2023-01-19T04:12:03.366Z,1.10
2023-01-19T04:14:34.246Z,1.08
2023-01-19T04:17:05.142Z,0.93
2023-01-19T04:19:36.602Z,1.33
2023-01-19T04:22:07.500Z,1.52
2023-01-19T04:24:38.653Z,1.02
2023-01-19T04:27:09.463Z,0.95
2023-01-19T04:32:11.358Z,1.00
2023-01-19T04:34:42.713Z,0.90
2023-01-19T04:37:14.010Z,1.20
2023-01-19T04:39:45.345Z,1.10
2023-01-19T04:42:16.702Z,1.02
2023-01-19T04:44:48.182Z,1.00
2023-01-19T04:49:50.047Z,0.90
2023-01-19T04:52:20.959Z,1.02
2023-01-19T04:54:51.847Z,1.20
2023-01-19T04:57:22.627Z,1.20
2023-01-19T04:59:53.679Z,1.02
2023-01-19T05:02:24.905Z,0.90
2023-01-19T05:04:56.201Z,1.05
2023-01-19T05:07:27.295Z,1.15
2023-01-19T05:09:58.589Z,0.98
2023-01-19T05:12:30.625Z,1.00
2023-01-19T05:15:01.516Z,1.00
2023-01-19T05:17:33.465Z,0.95
2023-01-19T05:20:05.256Z,0.90
2023-01-19T05:22:36.274Z,0.70
2023-01-19T05:25:10.175Z,0.75
2023-01-19T05:27:41.223Z,0.90
2023-01-19T05:30:13.654Z,0.80
2023-01-19T05:32:44.752Z,0.80
2023-01-19T05:35:18.300Z,0.80
2023-01-19T05:37:51.383Z,0.90
2023-01-19T05:40:23.093Z,1.00
2023-01-19T05:42:54.738Z,0.70
2023-01-19T05:45:25.703Z,0.80
2023-01-19T05:47:57.297Z,1.10
2023-01-19T05:50:28.689Z,0.90
2023-01-19T05:53:01.599Z,0.90
2023-01-19T05:55:33.668Z,0.98
2023-01-19T05:58:04.848Z,1.00
2023-01-19T06:00:36.200Z,1.00
2023-01-19T06:03:07.928Z,0.88
2023-01-19T06:05:40.941Z,1.00
2023-01-19T06:08:11.796Z,1.13
2023-01-19T06:10:42.715Z,1.23
2023-01-19T06:13:14.482Z,1.05
2023-01-19T06:15:46.452Z,1.10
2023-01-19T06:20:48.331Z,1.30
2023-01-19T06:25:51.621Z,1.15
2023-01-19T06:28:22.878Z,1.80
2023-01-19T06:30:55.334Z,1.50
2023-01-19T06:33:27.361Z,1.50
2023-01-19T06:35:59.057Z,1.85
2023-01-19T06:38:30.551Z,1.30
2023-01-19T06:41:04.145Z,1.00
2023-01-19T06:43:35.559Z,0.80
2023-01-19T06:46:06.530Z,0.90
2023-01-19T06:48:37.391Z,1.02
2023-01-19T06:51:08.750Z,1.35
2023-01-19T06:53:40.207Z,1.00
2023-01-19T06:56:11.688Z,0.90
2023-01-19T06:58:44.119Z,0.95
2023-01-19T07:01:15.215Z,1.08
2023-01-19T07:03:46.980Z,1.10
2023-01-19T07:06:17.977Z,1.00
2023-01-19T07:08:49.104Z,1.05
2023-01-19T07:11:26.404Z,1.08
2023-01-19T07:14:02.606Z,0.93
2023-01-19T07:16:34.135Z,1.10
2023-01-19T07:21:35.634Z,1.10
2023-01-19T07:26:37.232Z,1.10
2023-01-19T07:29:08.672Z,1.17
2023-01-19T07:31:40.255Z,1.23
2023-01-19T07:36:44.232Z,1.10
2023-01-19T07:39:15.605Z,1.10
2023-01-19T07:41:46.686Z,1.20
2023-01-19T07:44:18.042Z,1.42
2023-01-19T07:49:19.731Z,1.25
2023-01-19T07:51:51.044Z,1.20
2023-01-19T07:56:56.623Z,1.35
2023-01-19T07:59:27.568Z,1.40
2023-01-19T08:02:00.858Z,1.33
2023-01-19T08:04:32.170Z,1.38
2023-01-19T08:09:34.192Z,1.50
2023-01-19T08:14:37.447Z,1.25
2023-01-19T08:17:08.445Z,1.33
2023-01-19T08:19:41.405Z,1.30
2023-01-19T08:22:12.700Z,1.10
2023-01-19T08:24:43.855Z,1.20
2023-01-19T08:27:14.934Z,1.10
2023-01-19T08:29:46.317Z,1.10
2023-01-19T08:32:17.402Z,1.40
2023-01-19T08:34:48.469Z,1.38
2023-01-19T08:37:19.678Z,1.33
2023-01-19T08:39:50.489Z,1.30
2023-01-19T08:42:21.822Z,1.60
2023-01-19T08:44:58.053Z,1.20
2023-01-19T08:47:29.948Z,1.30
2023-01-19T08:50:01.346Z,1.50
2023-01-19T08:52:33.438Z,1.45
2023-01-19T08:55:04.843Z,1.35
2023-01-19T08:57:36.451Z,1.42
2023-01-19T09:02:40.724Z,1.38
2023-01-19T09:05:11.893Z,1.30
2023-01-19T09:07:43.265Z,1.48
2023-01-19T09:10:15.002Z,1.70
2023-01-19T09:12:46.532Z,1.48
2023-01-19T09:15:18.566Z,1.45
2023-01-19T09:17:49.765Z,1.50
2023-01-19T09:20:20.922Z,1.50
2023-01-19T09:22:52.028Z,1.55
2023-01-19T09:25:23.173Z,1.50
2023-01-19T09:27:54.446Z,1.40
2023-01-19T09:30:25.770Z,1.30
2023-01-19T09:32:59.283Z,1.50
2023-01-19T09:35:30.262Z,1.20
2023-01-19T09:38:02.120Z,1.65
2023-01-19T09:40:33.582Z,1.50
2023-01-19T09:43:53.819Z,1.40
2023-01-19T09:46:44.074Z,1.42
2023-01-19T09:49:32.335Z,1.50
2023-01-19T09:52:03.761Z,1.33
2023-01-19T09:54:49.172Z,1.65
2023-01-19T09:57:20.370Z,1.35
2023-01-19T09:59:52.889Z,1.48
2023-01-19T10:03:03.376Z,1.67
2023-01-19T10:05:43.836Z,1.27
2023-01-19T10:08:38.177Z,1.40
2023-01-19T10:11:52.007Z,1.30
2023-01-19T10:14:39.038Z,1.30
2023-01-19T10:17:59.221Z,1.48
2023-01-19T10:20:52.623Z,1.10
2023-01-19T10:23:56.156Z,1.30
2023-01-19T10:26:28.234Z,1.67
2023-01-19T10:29:05.243Z,2.00
2023-01-19T10:31:38.397Z,1.55
2023-01-19T10:34:11.035Z,1.85
2023-01-19T10:36:42.839Z,1.33
2023-01-19T10:39:17.319Z,1.73
2023-01-19T10:41:55.758Z,1.73
2023-01-19T10:44:29.483Z,1.45
2023-01-19T10:47:01.635Z,1.60
2023-01-19T10:49:41.589Z,1.55
2023-01-19T10:52:36.412Z,1.30
2023-01-19T10:55:13.941Z,1.55
2023-01-19T10:57:46.646Z,1.83
2023-01-19T11:00:32.705Z,1.40
2023-01-19T11:03:04.787Z,1.35
2023-01-19T11:05:37.501Z,1.27
2023-01-19T11:08:31.079Z,1.27
2023-01-19T11:11:05.971Z,1.60
2023-01-19T11:13:38.364Z,1.63
2023-01-19T11:16:41.550Z,1.73
2023-01-19T11:19:31.231Z,1.70
2023-01-19T11:22:26.291Z,1.45
2023-01-19T11:25:02.227Z,1.88
2023-01-19T11:27:36.673Z,1.48
2023-01-19T11:30:17.956Z,1.45
2023-01-19T11:32:50.650Z,1.20
2023-01-19T11:35:36.067Z,1.50
2023-01-19T11:38:20.010Z,1.60
2023-01-19T11:40:59.243Z,1.52
2023-01-19T11:43:48.363Z,1.90
2023-01-19T11:46:20.403Z,1.50
2023-01-19T11:49:03.460Z,1.80
2023-01-19T11:51:46.159Z,1.88
2023-01-19T11:54:31.450Z,1.92
2023-01-19T11:57:04.306Z,1.20
2023-01-19T11:59:35.898Z,1.40
2023-01-19T12:02:28.545Z,1.40
2023-01-19T12:05:02.787Z,1.50
2023-01-19T12:07:36.127Z,1.42
2023-01-19T12:10:31.178Z,1.45
2023-01-19T12:13:03.069Z,1.25
2023-01-19T12:15:39.924Z,1.20
2023-01-19T12:18:20.518Z,1.60
2023-01-19T12:20:57.777Z,1.60
2023-01-19T12:23:31.732Z,1.65
2023-01-19T12:26:44.524Z,1.58
2023-01-19T12:29:17.538Z,1.40
2023-01-19T12:31:50.467Z,1.50
2023-01-19T12:34:37.511Z,1.73
2023-01-19T12:37:32.499Z,1.55
2023-01-19T12:40:28.593Z,1.50
2023-01-19T12:43:03.586Z,1.55
2023-01-19T12:45:41.110Z,1.15
2023-01-19T12:48:26.971Z,1.65
2023-01-19T12:50:57.886Z,1.50
2023-01-19T12:53:28.819Z,1.95
2023-01-19T12:56:07.416Z,1.40
2023-01-19T12:58:38.500Z,1.63
2023-01-19T13:01:19.779Z,1.70
2023-01-19T13:04:29.582Z,1.70
2023-01-19T13:07:07.175Z,1.38
2023-01-19T13:09:40.164Z,1.55
2023-01-19T13:12:17.428Z,1.35
2023-01-19T13:14:49.047Z,1.85
2023-01-19T13:17:35.411Z,1.45
2023-01-19T13:20:20.279Z,1.38
2023-01-19T13:22:52.946Z,1.63
2023-01-19T13:25:36.963Z,1.60
2023-01-19T13:28:11.138Z,1.73
2023-01-19T13:30:56.953Z,1.70
2023-01-19T13:33:30.338Z,1.70
2023-01-19T13:36:01.968Z,1.60
2023-01-19T13:38:34.616Z,1.45
2023-01-19T13:41:05.896Z,1.65
2023-01-19T13:43:39.508Z,2.03
2023-01-19T13:46:13.548Z,1.67
2023-01-19T13:48:56.480Z,1.60
2023-01-19T13:51:27.902Z,1.70
2023-01-19T13:54:07.097Z,1.50
2023-01-19T13:56:38.103Z,1.67
2023-01-19T13:59:13.904Z,1.80
2023-01-19T14:01:47.609Z,2.15
2023-01-19T14:04:35.976Z,1.88
2023-01-19T14:07:13.593Z,1.85
2023-01-19T14:09:44.649Z,1.70
2023-01-19T14:12:18.946Z,1.60
2023-01-19T14:14:50.245Z,1.70
2023-01-19T14:19:58.950Z,1.63
2023-01-19T14:22:45.131Z,1.52
2023-01-19T14:25:37.104Z,2.38
2023-01-19T14:28:30.621Z,2.10
2023-01-19T14:31:18.499Z,2.10
2023-01-19T14:33:50.825Z,2.50
2023-01-19T14:36:27.870Z,2.67
2023-01-19T14:39:01.647Z,2.20
2023-01-19T14:41:42.606Z,2.50
2023-01-19T14:44:18.653Z,2.40
2023-01-19T14:46:50.591Z,2.40
2023-01-19T14:49:41.984Z,2.47
2023-01-19T14:52:28.687Z,1.90
2023-01-19T14:55:00.941Z,2.08
2023-01-19T14:57:32.354Z,1.90
2023-01-19T15:00:04.509Z,2.00
2023-01-19T15:02:35.818Z,1.70
2023-01-19T15:05:07.697Z,1.70
2023-01-19T15:10:27.210Z,1.73
2023-01-19T15:12:58.823Z,1.90
2023-01-19T15:15:33.397Z,1.45
2023-01-19T15:18:06.111Z,1.55
2023-01-19T15:20:37.145Z,1.95
2023-01-19T15:23:08.408Z,2.13
2023-01-19T15:25:43.796Z,1.58
2023-01-19T15:28:17.724Z,1.88
2023-01-19T15:30:49.071Z,2.10
2023-01-19T15:33:23.019Z,1.80
2023-01-19T15:35:54.983Z,1.77
2023-01-19T15:38:42.604Z,1.80
2023-01-19T15:41:37.725Z,1.83
2023-01-19T15:44:10.613Z,1.70
2023-01-19T15:46:41.865Z,1.70
2023-01-19T15:49:13.269Z,1.92
2023-01-19T15:51:44.655Z,1.60
2023-01-19T15:54:16.408Z,1.90
2023-01-19T15:56:47.723Z,1.98
2023-01-19T15:59:18.737Z,2.17
2023-01-19T16:01:52.271Z,1.83
2023-01-19T16:04:23.693Z,2.00
2023-01-19T16:06:54.857Z,1.80
2023-01-19T16:09:25.966Z,1.75
2023-01-19T16:11:58.819Z,2.00
2023-01-19T16:14:29.675Z,1.83
2023-01-19T16:17:03.641Z,1.90
2023-01-19T16:19:34.732Z,2.35
2023-01-19T16:22:07.129Z,2.17
2023-01-19T16:24:38.308Z,2.25
2023-01-19T16:27:10.393Z,3.25
2023-01-19T16:29:41.749Z,5.85
2023-01-19T16:32:12.715Z,5.05
2023-01-19T16:34:44.040Z,4.82
2023-01-19T16:37:15.106Z,5.05
2023-01-19T16:39:46.867Z,3.45
2023-01-19T16:42:18.167Z,2.75
2023-01-19T16:44:49.524Z,2.20
2023-01-19T16:47:20.955Z,2.50
2023-01-19T16:49:52.060Z,1.92
2023-01-19T16:52:23.100Z,2.00
2023-01-19T16:54:56.052Z,2.20
2023-01-19T16:57:27.172Z,2.20
2023-01-19T16:59:58.026Z,1.90
2023-01-19T17:02:29.211Z,2.10
2023-01-19T17:05:01.734Z,2.28
2023-01-19T17:07:33.657Z,2.08
2023-01-19T17:12:35.682Z,2.15
2023-01-19T17:15:07.337Z,1.95
2023-01-19T17:20:10.634Z,1.85
2023-01-19T17:22:41.936Z,2.40
2023-01-19T17:25:13.203Z,2.00
2023-01-19T17:30:15.866Z,2.10
2023-01-19T17:32:46.932Z,2.08
2023-01-19T17:35:17.882Z,1.97
2023-01-19T17:37:48.819Z,2.30
2023-01-19T17:40:20.135Z,2.17
2023-01-19T17:42:51.081Z,2.13
2023-01-19T17:45:22.083Z,2.08
2023-01-19T17:47:53.748Z,2.58
2023-01-19T17:50:25.002Z,2.58
2023-01-19T17:52:56.027Z,2.75
2023-01-19T17:55:27.050Z,3.10
2023-01-19T17:57:59.622Z,2.20
2023-01-19T18:00:31.715Z,2.40
2023-01-19T18:03:02.789Z,2.40
2023-01-19T18:05:34.128Z,2.45
2023-01-19T18:08:05.179Z,3.30
2023-01-19T18:10:36.543Z,3.20
2023-01-19T18:13:07.760Z,3.75
2023-01-19T18:15:39.124Z,4.10
2023-01-19T18:18:10.389Z,4.97
2023-01-19T18:20:42.192Z,5.25
2023-01-19T18:23:14.494Z,4.78
2023-01-19T18:25:45.484Z,5.07
2023-01-19T18:28:16.823Z,5.07
2023-01-19T18:30:48.201Z,5.18
2023-01-19T18:33:19.379Z,4.65
2023-01-19T18:35:50.547Z,3.00
2023-01-19T18:38:21.972Z,2.00
2023-01-19T18:41:06.319Z,2.10
2023-01-19T18:43:38.001Z,2.17
2023-01-19T18:46:09.666Z,2.13
2023-01-19T18:48:41.403Z,2.50
2023-01-19T18:51:15.336Z,2.25
2023-01-19T18:53:47.519Z,2.63
2023-01-19T18:56:18.885Z,2.72
2023-01-19T18:58:50.405Z,2.83
2023-01-19T19:01:32.500Z,2.42
2023-01-19T19:04:04.432Z,2.22
2023-01-19T19:06:35.883Z,2.15
2023-01-19T19:09:07.163Z,2.35
2023-01-19T19:11:38.333Z,2.17
2023-01-19T19:14:09.777Z,2.65
2023-01-19T19:16:40.921Z,2.90
2023-01-19T19:19:14.428Z,3.13
2023-01-19T19:21:48.073Z,3.50
2023-01-19T19:24:19.506Z,3.30
2023-01-19T19:26:50.401Z,4.45
2023-01-19T19:29:22.315Z,3.88
2023-01-19T19:31:57.177Z,3.60
2023-01-19T19:34:29.383Z,3.70
2023-01-19T19:37:01.281Z,3.50
2023-01-19T19:39:32.454Z,3.00
2023-01-19T19:42:03.504Z,2.97
2023-01-19T19:44:34.626Z,2.50
2023-01-19T19:47:05.953Z,3.10
2023-01-19T19:49:36.985Z,2.90
2023-01-19T19:52:08.099Z,3.05
2023-01-19T19:54:39.535Z,3.00
2023-01-19T19:57:10.674Z,2.97
2023-01-19T19:59:42.133Z,2.67
2023-01-19T20:02:14.736Z,2.80
2023-01-19T20:04:46.402Z,2.90
2023-01-19T20:07:18.025Z,3.20
2023-01-19T20:09:49.109Z,3.00
2023-01-19T20:12:20.182Z,3.13
2023-01-19T20:14:51.308Z,2.50
2023-01-19T20:17:22.548Z,2.40
2023-01-19T20:19:53.567Z,2.00
2023-01-19T20:22:24.689Z,1.90
2023-01-19T20:24:56.202Z,1.80
2023-01-19T20:27:27.057Z,1.58
2023-01-19T20:35:01.592Z,1.70
2023-01-19T20:37:33.351Z,1.70
2023-01-19T20:40:04.689Z,2.20
2023-01-19T20:42:35.501Z,2.00
2023-01-19T20:45:06.856Z,1.77
2023-01-19T20:50:09.061Z,1.50
2023-01-19T20:52:40.324Z,1.65
2023-01-19T20:55:11.804Z,1.90
2023-01-19T20:57:43.196Z,1.70
2023-01-19T21:00:14.521Z,2.00
2023-01-19T21:02:45.989Z,1.50
2023-01-19T21:05:17.276Z,1.60
2023-01-19T21:07:48.601Z,1.60
2023-01-19T21:10:20.410Z,1.80
2023-01-19T21:12:51.805Z,1.67
2023-01-19T21:15:22.685Z,1.63
2023-01-19T21:17:53.614Z,1.60
2023-01-19T21:20:25.103Z,1.52
2023-01-19T21:22:55.999Z,1.60
2023-01-19T21:25:27.167Z,1.50
2023-01-19T21:27:58.241Z,1.60
2023-01-19T21:33:00.148Z,1.50
2023-01-19T21:35:31.285Z,1.63
2023-01-19T21:38:02.591Z,1.42
2023-01-19T21:40:33.809Z,1.40
2023-01-19T21:43:04.748Z,1.42
2023-01-19T21:48:06.688Z,1.40
2023-01-19T21:50:38.558Z,1.40
2023-01-19T21:53:12.706Z,1.50
2023-01-19T21:55:47.041Z,1.40
2023-01-19T21:58:18.090Z,1.65
2023-01-19T22:00:49.170Z,1.40
2023-01-19T22:03:21.299Z,1.30
2023-01-19T22:05:52.683Z,1.50
2023-01-19T22:08:24.421Z,1.30
2023-01-19T22:10:55.593Z,1.55
2023-01-19T22:13:26.693Z,1.80
2023-01-19T22:16:10.264Z,1.80
2023-01-19T22:18:43.131Z,1.40
2023-01-19T22:21:16.658Z,1.42
2023-01-19T22:23:51.379Z,1.60
2023-01-19T22:26:23.169Z,1.40
2023-01-19T22:28:58.444Z,1.40
2023-01-19T22:31:31.889Z,1.38
2023-01-19T22:34:03.448Z,1.42
2023-01-19T22:36:35.417Z,1.10
2023-01-19T22:39:09.179Z,1.20
2023-01-19T22:41:49.327Z,1.20
2023-01-19T22:44:25.034Z,1.20
2023-01-19T22:46:57.706Z,1.40
2023-01-19T22:49:29.680Z,1.30
2023-01-19T22:52:00.870Z,1.30
2023-01-19T22:54:32.040Z,1.10
2023-01-19T22:59:33.610Z,1.30
2023-01-19T23:02:04.700Z,1.00
2023-01-19T23:04:36.208Z,1.15
2023-01-19T23:09:40.802Z,1.23
2023-01-19T23:12:11.924Z,1.27
2023-01-19T23:14:42.834Z,1.17
2023-01-19T23:17:13.913Z,1.10
2023-01-19T23:19:45.351Z,1.30
2023-01-19T23:22:16.553Z,1.05
2023-01-19T23:24:47.888Z,0.95
2023-01-19T23:27:18.997Z,0.90
2023-01-19T23:32:21.256Z,0.90
2023-01-19T23:34:52.122Z,0.80
2023-01-19T23:37:23.273Z,1.00
2023-01-19T23:39:54.385Z,0.90
2023-01-19T23:44:56.776Z,1.00
2023-01-19T23:47:27.863Z,1.00
2023-01-19T23:49:58.720Z,0.90
2023-01-19T23:52:29.535Z,0.90
2023-01-19T23:55:00.790Z,0.80
2023-01-19T23:57:33.208Z,0.80
